Time;durP1;ratioP1;P1;durP2;ratioP2;P2;SDS_P1;SDS_P2;PMS_P1;PMS_P2;Temp;Humidity;BMP_temperature;BMP_pressure;BME280_temperature;BME280_humidity;BME280_pressure;Samples;Min_cycle;Max_cycle;Signal;HPM_P1;HPM_P2
2021/01/09 00:01:50;;;;;;;66.50;44.07;;;0.30;99.20;;;;;;5128014;27;20187;-76
2021/01/09 00:04:15;;;;;;;67.33;43.80;;;0.20;99.30;;;;;;5108477;27;21084;-76
2021/01/09 00:06:43;;;;;;;71.13;45.80;;;0.20;99.30;;;;;;5109607;27;20278;-77
2021/01/09 00:09:08;;;;;;;65.05;46.30;;;0.20;99.40;;;;;;5109294;27;20187;-77
2021/01/09 00:11:34;;;;;;;80.60;49.13;;;0.20;99.20;;;;;;5128282;27;20203;-76
2021/01/09 00:14:00;;;;;;;74.33;46.07;;;0.20;99.20;;;;;;5109456;27;20191;-76
2021/01/09 00:16:25;;;;;;;68.90;45.93;;;0.20;99.20;;;;;;5127708;27;20183;-76
2021/01/09 00:18:52;;;;;;;68.50;45.17;;;0.20;99.10;;;;;;5126650;27;20175;-76
2021/01/09 00:21:18;;;;;;;63.33;44.90;;;0.20;99.20;;;;;;5127427;27;20179;-76
2021/01/09 00:23:43;;;;;;;69.73;45.77;;;0.20;99.00;;;;;;5127306;27;20194;-76
2021/01/09 00:26:09;;;;;;;69.90;46.23;;;0.20;99.10;;;;;;5109003;28;20506;-76
2021/01/09 00:28:35;;;;;;;73.03;47.55;;;0.20;99.00;;;;;;5128088;27;20940;-76
2021/01/09 00:31:01;;;;;;;68.47;45.20;;;0.20;99.00;;;;;;5108778;27;20190;-76
2021/01/09 00:33:27;;;;;;;66.07;43.30;;;0.20;98.80;;;;;;5109053;27;20584;-76
2021/01/09 00:35:56;;;;;;;65.30;43.50;;;0.10;99.00;;;;;;5110733;27;20180;-76
2021/01/09 00:38:23;;;;;;;67.85;44.80;;;0.10;98.80;;;;;;5094179;27;20438;-76
2021/01/09 00:40:49;;;;;;;65.75;43.38;;;0.10;98.60;;;;;;5127686;27;20256;-76
2021/01/09 00:43:14;;;;;;;69.85;45.17;;;0.00;99.00;;;;;;5108796;28;20195;-76
2021/01/09 00:45:40;;;;;;;70.10;44.50;;;-0.10;99.40;;;;;;5127419;27;20186;-76
2021/01/09 00:48:06;;;;;;;65.47;43.00;;;0.00;99.30;;;;;;5108692;28;20567;-76
2021/01/09 00:50:32;;;;;;;65.10;43.90;;;0.00;99.20;;;;;;5126635;27;20270;-76
2021/01/09 00:52:57;;;;;;;68.17;45.10;;;0.00;99.70;;;;;;5108140;28;20474;-76
2021/01/09 00:55:23;;;;;;;65.80;44.00;;;0.10;99.40;;;;;;5126585;28;20179;-76
2021/01/09 00:57:52;;;;;;;66.50;45.07;;;0.00;99.40;;;;;;5108928;28;20195;-76
2021/01/09 01:00:18;;;;;;;63.35;44.17;;;-0.10;99.10;;;;;;5126843;28;20410;-76
2021/01/09 01:02:45;;;;;;;65.20;43.67;;;0.00;99.70;;;;;;5108843;28;20289;-76
2021/01/09 01:05:11;;;;;;;70.88;45.22;;;0.00;99.40;;;;;;5127332;28;20175;-76
2021/01/09 01:07:37;;;;;;;72.93;47.03;;;0.00;99.60;;;;;;5126187;28;20230;-76
2021/01/09 01:10:06;;;;;;;76.63;45.93;;;0.10;99.50;;;;;;5108433;28;20280;-76
2021/01/09 01:12:32;;;;;;;70.15;43.75;;;0.00;99.50;;;;;;5127088;28;20238;-76
2021/01/09 01:14:58;;;;;;;70.50;47.10;;;0.10;99.50;;;;;;5108727;28;20267;-76
2021/01/09 01:17:23;;;;;;;68.00;47.90;;;0.10;99.30;;;;;;5127023;28;21032;-76
2021/01/09 01:19:49;;;;;;;67.50;43.27;;;0.00;99.30;;;;;;5108594;28;20265;-76
2021/01/09 01:22:14;;;;;;;69.83;44.67;;;0.00;98.90;;;;;;5127246;28;20195;-76
2021/01/09 01:24:40;;;;;;;66.17;43.67;;;0.00;99.20;;;;;;5107691;28;20552;-76
2021/01/09 01:27:06;;;;;;;62.10;42.23;;;-0.10;99.00;;;;;;5126988;28;20179;-76
2021/01/09 01:29:31;;;;;;;68.30;43.50;;;-0.10;99.10;;;;;;5127546;28;20254;-76
2021/01/09 01:31:58;;;;;;;69.13;44.07;;;-0.10;99.20;;;;;;5126524;28;20207;-77
2021/01/09 01:34:23;;;;;;;71.20;47.35;;;-0.10;99.70;;;;;;5123450;27;20175;-76
2021/01/09 01:36:49;;;;;;;65.77;43.73;;;-0.10;99.80;;;;;;5084997;28;20539;-76
2021/01/09 01:39:15;;;;;;;72.90;46.00;;;-0.20;99.70;;;;;;5115273;28;20671;-76
2021/01/09 01:41:41;;;;;;;72.03;47.03;;;-0.10;99.70;;;;;;5107686;28;20427;-76
2021/01/09 01:44:07;;;;;;;71.60;46.72;;;0.00;99.50;;;;;;5126572;28;20407;-76
2021/01/09 01:46:33;;;;;;;62.38;45.05;;;-0.10;99.50;;;;;;5126853;28;20206;-76
2021/01/09 01:48:59;;;;;;;75.23;46.10;;;-0.10;99.60;;;;;;5108144;28;20246;-76
2021/01/09 01:51:25;;;;;;;63.85;44.25;;;0.00;99.70;;;;;;5126688;28;20183;-76
2021/01/09 01:53:54;;;;;;;70.38;46.13;;;0.00;99.40;;;;;;5108154;28;20187;-76
2021/01/09 01:56:21;;;;;;;70.25;46.75;;;-0.10;99.30;;;;;;5126079;28;20171;-76
2021/01/09 01:58:47;;;;;;;69.28;44.40;;;-0.10;99.40;;;;;;5107342;28;20183;-76
2021/01/09 02:01:15;;;;;;;65.20;45.60;;;-0.20;99.20;;;;;;5126466;28;20211;-76
2021/01/09 02:03:41;;;;;;;69.93;47.33;;;-0.20;99.30;;;;;;5110552;27;20244;-76
2021/01/09 02:06:16;;;;;;;73.50;44.77;;;-0.20;99.60;;;;;;5111298;27;20187;-76
2021/01/09 02:09:00;;;;;;;74.70;47.95;;;-0.30;99.10;;;;;;5130507;27;20912;-76
2021/01/09 02:11:52;;;;;;;69.22;45.38;;;-0.30;99.20;;;;;;5111762;27;20708;-76
2021/01/09 02:14:29;;;;;;;70.07;45.05;;;-0.40;99.10;;;;;;5128566;27;20168;-76
2021/01/09 02:16:56;;;;;;;67.03;42.92;;;-0.30;99.90;;;;;;5130563;27;20198;-76
2021/01/09 02:19:24;;;;;;;65.60;43.00;;;-0.50;99.30;;;;;;5130202;27;20179;-76
2021/01/09 02:21:51;;;;;;;67.47;42.97;;;-0.40;99.40;;;;;;5129534;27;20313;-76
2021/01/09 02:24:18;;;;;;;66.68;44.35;;;-0.30;99.70;;;;;;5129189;27;20517;-77
2021/01/09 02:26:48;;;;;;;73.18;43.90;;;-0.30;99.10;;;;;;5111413;27;20187;-76
2021/01/09 02:29:14;;;;;;;75.90;48.10;;;-0.30;99.90;;;;;;5130362;27;20638;-76
2021/01/09 02:31:56;;;;;;;71.40;46.50;;;-0.20;99.70;;;;;;5109738;27;20217;-77
2021/01/09 02:34:23;;;;;;;98.60;54.13;;;-0.30;99.50;;;;;;5126684;27;20540;-76
2021/01/09 02:36:49;;;;;;;76.30;51.25;;;-0.40;99.90;;;;;;5105788;28;20193;-76
2021/01/09 02:39:15;;;;;;;69.72;48.45;;;-0.40;99.90;;;;;;5117841;27;20546;-76
2021/01/09 02:41:42;;;;;;;77.37;45.60;;;-0.60;99.80;;;;;;5111204;27;20229;-76
2021/01/09 02:44:09;;;;;;;66.55;45.20;;;-0.50;99.90;;;;;;5129771;27;20375;-76
2021/01/09 02:46:36;;;;;;;62.28;41.65;;;-0.50;99.40;;;;;;5110169;27;20564;-76
2021/01/09 02:49:02;;;;;;;66.40;44.58;;;-0.60;99.60;;;;;;5130030;27;20267;-76
2021/01/09 02:51:28;;;;;;;71.47;46.35;;;-0.50;99.70;;;;;;5129874;27;20657;-76
2021/01/09 02:53:54;;;;;;;63.37;41.80;;;-0.50;99.90;;;;;;5129448;27;20199;-76
2021/01/09 02:56:19;;;;;;;75.10;44.80;;;-0.50;99.90;;;;;;5110398;27;20266;-76
2021/01/09 02:58:45;;;;;;;68.10;44.97;;;-0.40;99.90;;;;;;5110547;27;20191;-76
2021/01/09 03:01:10;;;;;;;74.13;45.93;;;-0.50;99.90;;;;;;5111141;27;20224;-76
2021/01/09 03:03:36;;;;;;;75.23;46.00;;;-0.60;99.30;;;;;;5109802;27;20199;-76
2021/01/09 03:06:02;;;;;;;68.00;44.30;;;-0.50;99.60;;;;;;5128863;27;20692;-76
2021/01/09 03:08:27;;;;;;;69.43;45.43;;;-0.60;99.70;;;;;;5129315;27;20195;-76
2021/01/09 03:10:53;;;;;;;78.23;47.20;;;-0.60;99.90;;;;;;5111034;27;20729;-76
2021/01/09 03:13:19;;;;;;;77.57;48.60;;;-0.60;99.90;;;;;;5128936;27;20214;-76
2021/01/09 03:15:44;;;;;;;68.87;45.07;;;-0.50;99.90;;;;;;5129070;27;20182;-76
2021/01/09 03:18:10;;;;;;;68.40;44.93;;;-0.60;99.90;;;;;;5128728;27;20179;-76
2021/01/09 03:20:35;;;;;;;73.67;45.43;;;-0.60;99.90;;;;;;5127717;27;20179;-76
2021/01/09 03:23:01;;;;;;;79.80;48.27;;;-0.60;99.90;;;;;;5129174;27;20188;-76
2021/01/09 03:25:27;;;;;;;79.40;47.97;;;-0.50;99.90;;;;;;5110415;27;20226;-76
2021/01/09 03:27:52;;;;;;;75.90;45.90;;;-0.60;99.90;;;;;;5129259;27;20600;-76
2021/01/09 03:30:18;;;;;;;76.37;47.03;;;-0.60;99.80;;;;;;5127943;27;20183;-76
2021/01/09 03:32:44;;;;;;;77.00;48.28;;;-0.60;99.90;;;;;;5128697;27;20211;-77
2021/01/09 03:35:10;;;;;;;76.97;47.10;;;-0.80;99.90;;;;;;5117429;27;20191;-77
2021/01/09 03:37:36;;;;;;;73.60;48.50;;;-0.80;99.70;;;;;;5089285;28;20192;-77
2021/01/09 03:40:02;;;;;;;70.33;45.97;;;-0.80;99.90;;;;;;5128780;27;20410;-77
2021/01/09 03:42:27;;;;;;;75.97;46.83;;;-0.90;99.80;;;;;;5128212;27;20183;-77
2021/01/09 03:44:53;;;;;;;72.03;44.50;;;-0.90;99.70;;;;;;5128660;27;20174;-76
2021/01/09 03:47:18;;;;;;;65.00;42.60;;;-0.90;99.90;;;;;;5127683;27;20258;-77
2021/01/09 03:49:44;;;;;;;73.10;45.83;;;-0.90;99.80;;;;;;5110099;27;20190;-76
2021/01/09 03:52:10;;;;;;;77.00;46.93;;;-0.80;99.90;;;;;;5126604;27;20219;-76
2021/01/09 03:54:35;;;;;;;78.30;44.90;;;-0.90;99.90;;;;;;5109794;27;20611;-76
2021/01/09 03:57:01;;;;;;;68.80;42.97;;;-0.90;99.90;;;;;;5128171;27;20187;-76
2021/01/09 03:59:26;;;;;;;78.50;45.37;;;-0.80;99.90;;;;;;5109191;27;20183;-77
2021/01/09 04:01:53;;;;;;;63.40;41.13;;;-0.80;99.90;;;;;;5127948;27;20187;-76
2021/01/09 04:04:18;;;;;;;66.57;42.85;;;-0.90;99.50;;;;;;5127894;27;20183;-76
2021/01/09 04:06:44;;;;;;;71.37;42.67;;;-0.90;99.90;;;;;;5127973;27;20178;-76
2021/01/09 04:09:10;;;;;;;74.03;43.17;;;-0.90;99.90;;;;;;5127216;27;20183;-76
2021/01/09 04:11:35;;;;;;;64.13;42.77;;;-0.80;99.90;;;;;;5127884;27;20547;-76
2021/01/09 04:14:01;;;;;;;70.10;44.80;;;-0.90;99.90;;;;;;5128486;27;20186;-76
2021/01/09 04:16:27;;;;;;;77.63;45.67;;;-0.90;99.90;;;;;;5108915;27;20267;-76
2021/01/09 04:18:52;;;;;;;75.30;45.13;;;-0.90;99.90;;;;;;5127773;27;20381;-76
2021/01/09 04:21:18;;;;;;;74.30;45.33;;;-0.90;99.90;;;;;;5109127;28;20187;-75
2021/01/09 04:23:44;;;;;;;60.80;40.73;;;-1.00;99.60;;;;;;5126616;27;20199;-75
2021/01/09 04:26:15;;;;;;;65.93;42.63;;;-1.10;99.80;;;;;;5108280;27;20227;-75
2021/01/09 04:28:41;;;;;;;72.82;43.53;;;-1.00;99.90;;;;;;5127638;27;20183;-75
2021/01/09 04:31:06;;;;;;;69.93;44.60;;;-1.00;99.80;;;;;;5127289;27;20175;-75
2021/01/09 04:33:32;;;;;;;76.07;42.93;;;-0.90;99.90;;;;;;5108782;27;21049;-75
2021/01/09 04:35:57;;;;;;;80.67;48.13;;;-0.90;99.90;;;;;;5110859;27;20211;-75
2021/01/09 04:38:23;;;;;;;80.43;49.10;;;-0.90;99.90;;;;;;5104751;27;20225;-75
2021/01/09 04:40:49;;;;;;;64.47;42.40;;;-0.90;99.90;;;;;;5108541;27;20214;-75
2021/01/09 04:43:16;;;;;;;72.17;46.53;;;-0.90;99.90;;;;;;5127245;27;20589;-75
2021/01/09 04:45:45;;;;;;;71.72;45.15;;;-0.90;99.90;;;;;;5109376;27;20201;-75
2021/01/09 04:48:12;;;;;;;73.82;48.30;;;-0.90;99.90;;;;;;5126384;27;20265;-76
2021/01/09 04:50:40;;;;;;;79.95;48.17;;;-0.80;99.90;;;;;;5127646;27;20218;-75
2021/01/09 04:53:07;;;;;;;80.28;47.15;;;-0.80;99.90;;;;;;5127284;27;20210;-75
2021/01/09 04:55:35;;;;;;;72.00;45.80;;;-0.80;99.90;;;;;;5109121;28;20641;-75
2021/01/09 04:58:03;;;;;;;72.20;46.53;;;-0.80;99.90;;;;;;5107860;28;20187;-75
2021/01/09 05:00:29;;;;;;;83.70;47.83;;;-0.70;99.90;;;;;;5126844;28;20662;-75
2021/01/09 05:02:57;;;;;;;75.57;45.13;;;-0.70;99.90;;;;;;5127625;28;20183;-75
2021/01/09 05:05:22;;;;;;;66.60;42.38;;;-0.60;99.90;;;;;;5127106;28;20193;-75
2021/01/09 05:07:48;;;;;;;68.00;44.20;;;-0.60;99.90;;;;;;5127293;27;20513;-75
2021/01/09 05:10:14;;;;;;;68.90;45.33;;;-0.50;99.90;;;;;;5109156;28;20599;-75
2021/01/09 05:12:40;;;;;;;76.17;45.33;;;-0.40;99.90;;;;;;5126167;28;20203;-76
2021/01/09 05:15:07;;;;;;;81.65;50.72;;;-0.40;99.90;;;;;;5126417;28;20172;-76
2021/01/09 05:17:34;;;;;;;75.80;48.42;;;-0.40;99.90;;;;;;5108875;28;20232;-76
2021/01/09 05:20:01;;;;;;;79.60;46.60;;;-0.40;99.90;;;;;;5126686;27;20179;-76
2021/01/09 05:22:27;;;;;;;86.03;50.20;;;-0.40;99.90;;;;;;5126603;28;20179;-76
2021/01/09 05:24:53;;;;;;;85.90;50.05;;;-0.40;99.90;;;;;;5108557;28;20721;-76
2021/01/09 05:27:23;;;;;;;70.60;44.33;;;-0.30;99.90;;;;;;5126837;28;20688;-76
2021/01/09 05:29:55;;;;;;;71.13;44.30;;;-0.30;99.90;;;;;;5126098;28;20191;-76
2021/01/09 05:32:22;;;;;;;77.00;46.10;;;-0.30;99.90;;;;;;5126419;27;20205;-76
2021/01/09 05:34:53;;;;;;;74.18;47.30;;;-0.30;99.90;;;;;;5120389;28;20194;-76
2021/01/09 05:37:24;;;;;;;76.05;45.80;;;-0.20;99.90;;;;;;5087463;28;20184;-76
2021/01/09 05:39:58;;;;;;;76.68;46.67;;;-0.20;99.90;;;;;;5110705;27;20187;-76
2021/01/09 05:42:26;;;;;;;83.50;48.47;;;-0.20;99.90;;;;;;5130598;27;20255;-76
2021/01/09 05:44:58;;;;;;;86.28;49.00;;;-0.10;99.90;;;;;;5130900;27;20248;-76
2021/01/09 05:47:25;;;;;;;89.30;48.55;;;-0.10;99.90;;;;;;5129777;27;20273;-76
2021/01/09 05:49:55;;;;;;;74.43;47.70;;;-0.10;99.90;;;;;;5130435;27;20163;-76
2021/01/09 05:52:25;;;;;;;77.05;46.53;;;-0.10;99.90;;;;;;5129941;27;20217;-76
2021/01/09 05:55:00;;;;;;;118.40;66.55;;;-0.10;99.90;;;;;;5112177;27;20647;-76
2021/01/09 05:57:33;;;;;;;402.60;202.45;;;-0.20;99.90;;;;;;5130497;27;20532;-76
2021/01/09 06:00:11;;;;;;;346.80;181.23;;;-0.10;99.90;;;;;;5130367;27;20696;-76
2021/01/09 06:02:51;;;;;;;256.75;142.27;;;-0.10;99.90;;;;;;5129493;27;20214;-76
2021/01/09 06:05:20;;;;;;;151.70;92.15;;;-0.10;99.90;;;;;;5129910;27;20305;-76
2021/01/09 06:07:49;;;;;;;191.82;123.10;;;-0.10;99.90;;;;;;5130378;27;20189;-76
2021/01/09 06:10:20;;;;;;;200.07;126.20;;;0.00;99.90;;;;;;5111693;27;20650;-76
2021/01/09 06:13:08;;;;;;;159.70;102.82;;;0.00;99.90;;;;;;5111437;27;20590;-76
2021/01/09 06:15:35;;;;;;;121.45;68.32;;;0.00;99.90;;;;;;5111696;27;20628;-76
2021/01/09 06:18:01;;;;;;;84.43;52.78;;;0.00;99.90;;;;;;5110570;27;20572;-76
2021/01/09 06:20:27;;;;;;;90.13;54.58;;;0.00;99.90;;;;;;5111464;27;20191;-76
2021/01/09 06:22:54;;;;;;;86.87;53.93;;;0.10;99.90;;;;;;5111789;27;20199;-76
2021/01/09 06:25:21;;;;;;;93.68;59.40;;;0.10;99.90;;;;;;5129798;27;20215;-76
2021/01/09 06:27:52;;;;;;;134.77;83.63;;;0.10;99.90;;;;;;5111693;27;20358;-76
2021/01/09 06:30:20;;;;;;;217.82;119.47;;;0.10;99.90;;;;;;5110975;27;20187;-76
2021/01/09 06:32:54;;;;;;;235.05;131.70;;;0.10;99.90;;;;;;5129675;27;20218;-76
2021/01/09 06:35:21;;;;;;;275.45;140.52;;;0.20;99.90;;;;;;5099338;28;20559;-76
2021/01/09 06:37:47;;;;;;;252.55;137.27;;;0.20;99.90;;;;;;5091562;27;20202;-76
2021/01/09 06:40:13;;;;;;;235.47;132.27;;;0.20;99.90;;;;;;5129642;27;20507;-76
2021/01/09 06:42:41;;;;;;;146.95;89.97;;;0.30;99.90;;;;;;5111322;27;20847;-76
2021/01/09 06:45:08;;;;;;;116.35;68.78;;;0.20;99.90;;;;;;5130086;27;20607;-76
2021/01/09 06:47:33;;;;;;;98.97;59.33;;;0.30;99.90;;;;;;5111274;27;20230;-76
2021/01/09 06:50:17;;;;;;;94.83;56.60;;;0.30;99.90;;;;;;5110175;27;20194;-76
2021/01/09 06:53:00;;;;;;;80.93;53.58;;;0.30;99.90;;;;;;5128852;27;20244;-76
2021/01/09 06:55:37;;;;;;;88.85;52.95;;;0.30;99.90;;;;;;5129462;27;20179;-76
2021/01/09 06:58:10;;;;;;;107.80;65.35;;;0.30;99.90;;;;;;5129567;27;20187;-76
2021/01/09 07:00:36;;;;;;;81.30;48.40;;;0.30;99.90;;;;;;5129299;27;20179;-76
2021/01/09 07:03:13;;;;;;;102.97;63.97;;;0.10;99.90;;;;;;5110895;27;20529;-76
2021/01/09 07:05:52;;;;;;;98.22;56.13;;;0.30;99.90;;;;;;5110832;27;20214;-76
2021/01/09 07:08:20;;;;;;;89.28;53.78;;;0.30;99.90;;;;;;5108996;27;20676;-76
2021/01/09 07:11:00;;;;;;;88.22;51.83;;;0.30;99.90;;;;;;5110893;27;20195;-76
2021/01/09 07:13:27;;;;;;;94.72;58.92;;;0.40;99.90;;;;;;5128761;27;20214;-76
2021/01/09 07:16:11;;;;;;;92.22;55.95;;;0.40;99.90;;;;;;5128886;27;20259;-77
2021/01/09 07:18:47;;;;;;;112.57;66.63;;;0.40;99.90;;;;;;5129002;27;20191;-76
2021/01/09 07:21:21;;;;;;;107.85;65.72;;;0.40;99.90;;;;;;5128827;27;20523;-76
2021/01/09 07:23:52;;;;;;;108.50;65.47;;;0.50;99.90;;;;;;5128430;27;20197;-76
2021/01/09 07:26:20;;;;;;;105.10;60.28;;;0.60;99.90;;;;;;5109310;27;20241;-76
2021/01/09 07:28:47;;;;;;;86.32;56.17;;;0.70;99.90;;;;;;5129308;27;20186;-76
2021/01/09 07:31:13;;;;;;;91.72;60.10;;;0.80;99.90;;;;;;5128599;27;20248;-76
2021/01/09 07:33:43;;;;;;;94.88;60.03;;;0.80;99.90;;;;;;5129108;27;20604;-76
2021/01/09 07:36:17;;;;;;;113.35;70.22;;;0.90;99.90;;;;;;5110040;27;20183;-76
2021/01/09 07:38:44;;;;;;;105.68;58.88;;;0.80;99.90;;;;;;5098767;27;20554;-76
2021/01/09 07:41:50;;;;;;;98.43;60.53;;;0.90;99.90;;;;;;5109026;27;20187;-76
2021/01/09 07:44:21;;;;;;;100.68;61.85;;;1.00;99.90;;;;;;4987499;28;20202;-76
2021/01/09 07:46:56;;;;;;;93.55;57.75;;;1.10;99.90;;;;;;5087169;28;20192;-76
2021/01/09 07:49:25;;;;;;;85.00;53.47;;;1.00;99.90;;;;;;5105479;28;20219;-76
2021/01/09 07:51:52;;;;;;;78.95;50.28;;;1.10;99.90;;;;;;5098363;28;20236;-76
2021/01/09 07:54:43;;;;;;;69.72;46.55;;;1.20;99.90;;;;;;5106515;28;20190;-76
2021/01/09 07:57:18;;;;;;;71.22;47.15;;;1.30;99.90;;;;;;5105843;28;20176;-76
2021/01/09 08:00:02;;;;;;;71.30;47.50;;;1.40;99.90;;;;;;5107193;28;20226;-76
2021/01/09 08:02:33;;;;;;;60.92;42.88;;;1.80;99.90;;;;;;5105754;28;20548;-76
2021/01/09 08:05:12;;;;;;;55.92;39.25;;;2.30;99.00;;;;;;5087162;28;20539;-76
2021/01/09 08:07:44;;;;;;;60.70;41.55;;;2.90;97.80;;;;;;5105300;28;20199;-76
2021/01/09 08:10:26;;;;;;;61.50;40.33;;;3.30;96.80;;;;;;5105487;28;20195;-76
2021/01/09 08:13:00;;;;;;;57.30;40.20;;;3.70;95.20;;;;;;5104307;28;20230;-76
2021/01/09 08:15:27;;;;;;;59.38;42.65;;;3.90;95.10;;;;;;5104843;28;20719;-76
2021/01/09 08:17:54;;;;;;;56.70;41.05;;;4.00;94.70;;;;;;5106089;28;20183;-76
2021/01/09 08:20:20;;;;;;;67.18;44.28;;;4.10;94.80;;;;;;5107273;28;20211;-76
2021/01/09 08:22:59;;;;;;;58.30;42.17;;;4.10;94.40;;;;;;5106739;28;20199;-76
2021/01/09 08:25:27;;;;;;;58.72;42.90;;;4.30;93.40;;;;;;5088391;28;20672;-76
2021/01/09 08:27:55;;;;;;;54.47;39.70;;;4.40;94.00;;;;;;5106323;28;20591;-77
2021/01/09 08:30:26;;;;;;;57.75;41.17;;;4.60;93.20;;;;;;5105630;28;20241;-77
2021/01/09 08:33:10;;;;;;;62.30;45.35;;;4.50;92.80;;;;;;5088635;28;20215;-77
2021/01/09 08:35:38;;;;;;;91.30;70.00;;;4.30;92.60;;;;;;5082936;28;20229;-82
2021/01/09 08:38:04;;;;;;;79.55;54.67;;;4.10;93.50;;;;;;5086485;28;20193;-82
2021/01/09 08:40:31;;;;;;;90.03;65.88;;;3.70;94.50;;;;;;5093521;28;20541;-82
2021/01/09 08:43:05;;;;;;;77.25;54.45;;;3.80;95.00;;;;;;5104985;28;20556;-82
2021/01/09 08:45:35;;;;;;;107.70;78.03;;;3.60;95.40;;;;;;5105619;28;20167;-82
2021/01/09 08:48:02;;;;;;;78.45;54.20;;;3.90;94.90;;;;;;5097873;28;20223;-82
2021/01/09 08:50:30;;;;;;;88.40;59.95;;;4.10;94.10;;;;;;5106287;28;20180;-83
2021/01/09 08:53:01;;;;;;;69.13;47.90;;;4.10;93.90;;;;;;5098341;28;20219;-82
2021/01/09 08:55:28;;;;;;;61.78;42.85;;;4.00;93.30;;;;;;5105305;28;20176;-82
2021/01/09 08:57:54;;;;;;;60.33;43.42;;;4.10;94.10;;;;;;5105221;28;20200;-82
2021/01/09 09:00:21;;;;;;;57.43;43.10;;;4.10;93.60;;;;;;5106517;28;20295;-82
2021/01/09 09:02:48;;;;;;;82.07;48.63;;;4.20;93.10;;;;;;5097155;28;20437;-82
2021/01/09 09:05:14;;;;;;;77.10;49.88;;;4.70;93.30;;;;;;5105403;28;20184;-82
2021/01/09 09:07:44;;;;;;;83.97;53.67;;;4.90;92.60;;;;;;5098109;28;20202;-82
2021/01/09 09:10:14;;;;;;;63.03;47.17;;;5.20;92.60;;;;;;5104947;28;20187;-82
2021/01/09 09:12:40;;;;;;;64.07;44.50;;;5.30;91.60;;;;;;5107615;28;20591;-82
2021/01/09 09:15:10;;;;;;;58.10;41.47;;;5.10;91.30;;;;;;5111277;28;20616;-82
2021/01/09 09:17:37;;;;;;;144.77;85.80;;;5.30;90.90;;;;;;5100814;28;20184;-82
2021/01/09 09:20:04;;;;;;;74.55;53.10;;;5.80;91.00;;;;;;5110916;28;20175;-82
2021/01/09 09:22:30;;;;;;;88.38;63.60;;;6.20;90.80;;;;;;5109221;28;20283;-82
2021/01/09 09:24:56;;;;;;;56.70;43.97;;;6.90;90.00;;;;;;5110672;28;20187;-82
2021/01/09 09:27:30;;;;;;;64.90;47.47;;;7.10;85.00;;;;;;5109035;28;20406;-82
2021/01/09 09:30:13;;;;;;;55.67;44.70;;;7.10;83.30;;;;;;5110467;28;20266;-82
2021/01/09 09:32:43;;;;;;;46.97;37.60;;;7.40;83.20;;;;;;5101663;28;20674;-83
2021/01/09 09:35:26;;;;;;;50.22;37.53;;;7.20;81.70;;;;;;5106022;28;20224;-83
2021/01/09 09:37:53;;;;;;;46.88;38.38;;;6.80;82.30;;;;;;5103778;27;20256;-82
2021/01/09 09:40:26;;;;;;;49.33;37.92;;;7.00;82.90;;;;;;5130078;27;20240;-82
2021/01/09 09:42:52;;;;;;;45.42;36.35;;;7.40;85.40;;;;;;5130944;27;20270;-83
2021/01/09 09:45:18;;;;;;;44.75;36.50;;;7.10;80.10;;;;;;5130177;27;20245;-82
2021/01/09 09:47:48;;;;;;;45.95;38.20;;;7.40;84.10;;;;;;5130443;27;20233;-83
2021/01/09 09:50:21;;;;;;;46.08;37.35;;;7.60;81.60;;;;;;5111804;27;20191;-83
2021/01/09 09:52:57;;;;;;;44.35;37.22;;;8.20;77.70;;;;;;5129865;27;20219;-82
2021/01/09 09:55:23;;;;;;;48.42;41.38;;;7.80;79.10;;;;;;5130674;27;20537;-82
2021/01/09 09:58:06;;;;;;;53.67;40.90;;;7.80;80.80;;;;;;5130397;27;20186;-82
2021/01/09 10:00:39;;;;;;;48.60;40.20;;;7.60;80.50;;;;;;5130200;27;20161;-82
2021/01/09 10:03:05;;;;;;;40.45;34.80;;;7.60;81.20;;;;;;5112667;27;20195;-82
2021/01/09 10:05:30;;;;;;;44.73;36.63;;;7.90;77.60;;;;;;5130305;27;20186;-82
2021/01/09 10:08:13;;;;;;;44.70;36.13;;;7.60;78.50;;;;;;5111334;27;20810;-82
2021/01/09 10:10:40;;;;;;;45.38;36.90;;;7.70;82.10;;;;;;5130087;27;20255;-83
2021/01/09 10:13:06;;;;;;;56.95;41.60;;;7.60;78.10;;;;;;5111503;27;20979;-82
2021/01/09 10:15:31;;;;;;;49.77;39.60;;;7.30;80.00;;;;;;5130212;27;20182;-82
2021/01/09 10:17:59;;;;;;;93.77;53.30;;;8.00;82.50;;;;;;5130049;27;20402;-83
2021/01/09 10:20:25;;;;;;;56.58;44.60;;;7.40;79.40;;;;;;5129536;27;20400;-83
2021/01/09 10:22:51;;;;;;;55.28;44.17;;;7.60;79.70;;;;;;5111166;27;20650;-83
2021/01/09 10:25:17;;;;;;;55.50;42.60;;;7.10;81.00;;;;;;5130075;27;20235;-82
2021/01/09 10:27:43;;;;;;;58.50;43.45;;;7.50;83.30;;;;;;5134406;27;20398;-82
2021/01/09 10:30:09;;;;;;;51.43;42.30;;;7.60;80.60;;;;;;5115280;27;20371;-82
2021/01/09 10:32:35;;;;;;;54.00;43.55;;;7.90;83.30;;;;;;5134898;27;20738;-83
2021/01/09 10:35:00;;;;;;;71.10;49.67;;;7.60;83.00;;;;;;5126019;27;20312;-82
2021/01/09 10:37:26;;;;;;;96.60;58.37;;;7.50;80.70;;;;;;5104556;28;20421;-81
2021/01/09 10:39:52;;;;;;;55.87;45.67;;;7.30;84.40;;;;;;5132203;27;20216;-83
2021/01/09 10:42:18;;;;;;;55.83;41.60;;;7.40;81.70;;;;;;5115830;27;20199;-82
2021/01/09 10:44:44;;;;;;;73.63;51.95;;;7.50;83.20;;;;;;5134938;27;20682;-82
2021/01/09 10:47:09;;;;;;;57.40;46.20;;;7.60;80.80;;;;;;5133301;27;20220;-81
2021/01/09 10:49:35;;;;;;;51.37;39.10;;;7.70;80.70;;;;;;5133206;27;20378;-82
2021/01/09 10:52:01;;;;;;;90.13;48.60;;;7.60;80.90;;;;;;5133557;27;20337;-83
2021/01/09 10:54:26;;;;;;;54.07;41.03;;;7.40;82.10;;;;;;5114925;27;20545;-82
2021/01/09 10:56:52;;;;;;;64.40;44.83;;;7.50;80.30;;;;;;5131633;27;20189;-82
2021/01/09 10:59:17;;;;;;;56.30;42.50;;;7.60;81.00;;;;;;5115375;27;20310;-81
2021/01/09 11:01:43;;;;;;;49.33;37.30;;;7.60;81.40;;;;;;5129157;27;20178;-81
2021/01/09 11:04:09;;;;;;;66.70;46.83;;;7.70;79.60;;;;;;5129035;27;20183;-81
2021/01/09 11:06:35;;;;;;;48.37;39.63;;;7.70;79.30;;;;;;5110312;27;20607;-80
2021/01/09 11:09:01;;;;;;;56.20;42.93;;;7.50;83.50;;;;;;5129509;27;20245;-81
2021/01/09 11:11:26;;;;;;;53.60;41.37;;;7.20;81.70;;;;;;5110220;27;20418;-82
2021/01/09 11:13:52;;;;;;;55.10;39.77;;;7.20;82.00;;;;;;5109830;27;20214;-82
2021/01/09 11:16:19;;;;;;;54.57;40.80;;;7.20;81.40;;;;;;5128695;27;20183;-82
2021/01/09 11:18:45;;;;;;;51.50;40.50;;;7.10;83.60;;;;;;5110379;27;20225;-82
2021/01/09 11:21:11;;;;;;;55.13;39.95;;;7.10;84.40;;;;;;5128771;27;20175;-82
2021/01/09 11:23:36;;;;;;;50.20;39.57;;;7.20;83.10;;;;;;5110365;27;20198;-82
2021/01/09 11:26:02;;;;;;;53.13;41.77;;;6.90;83.00;;;;;;5129075;27;20183;-81
2021/01/09 11:28:28;;;;;;;50.13;35.97;;;7.00;85.40;;;;;;5128473;27;20198;-81
2021/01/09 11:30:53;;;;;;;47.50;36.97;;;7.10;82.20;;;;;;5128004;27;20194;-82
2021/01/09 11:33:19;;;;;;;48.30;35.80;;;7.40;84.10;;;;;;5128564;27;20206;-82
2021/01/09 11:35:46;;;;;;;46.80;35.90;;;7.40;82.00;;;;;;5095751;28;20195;-82
2021/01/09 11:38:12;;;;;;;47.88;35.85;;;7.50;81.20;;;;;;5094513;27;20271;-82
2021/01/09 11:40:37;;;;;;;46.30;33.63;;;7.50;78.70;;;;;;5128378;27;20310;-82
2021/01/09 11:43:03;;;;;;;46.17;34.97;;;7.60;75.80;;;;;;5110432;27;20210;-82
2021/01/09 11:45:28;;;;;;;50.13;36.00;;;7.50;78.30;;;;;;5127312;27;20707;-82
2021/01/09 11:47:54;;;;;;;44.13;33.77;;;7.70;78.50;;;;;;5129014;27;20234;-82
2021/01/09 11:50:20;;;;;;;49.17;35.30;;;7.60;80.00;;;;;;5128249;27;20557;-82
2021/01/09 11:52:45;;;;;;;47.37;36.20;;;7.80;80.60;;;;;;5128038;27;20721;-81
2021/01/09 11:55:11;;;;;;;46.97;35.83;;;7.90;79.80;;;;;;5110107;27;20592;-82
2021/01/09 11:57:37;;;;;;;48.60;36.00;;;7.80;77.60;;;;;;5109973;27;20187;-81
2021/01/09 12:00:07;;;;;;;42.13;32.93;;;7.70;75.30;;;;;;5128361;27;20512;-82
2021/01/09 12:02:33;;;;;;;45.63;33.47;;;7.60;77.70;;;;;;5108308;27;20202;-82
2021/01/09 12:04:58;;;;;;;41.70;32.50;;;7.60;74.30;;;;;;5110303;27;20224;-82
2021/01/09 12:07:24;;;;;;;43.77;33.60;;;7.60;76.10;;;;;;5128075;27;20592;-81
2021/01/09 12:09:50;;;;;;;42.77;32.47;;;7.60;78.30;;;;;;5127463;27;20175;-82
2021/01/09 12:12:15;;;;;;;43.47;32.57;;;7.70;78.80;;;;;;5127712;27;20207;-81
2021/01/09 12:14:41;;;;;;;34.60;28.23;;;7.90;78.00;;;;;;5109374;27;20182;-82
2021/01/09 12:17:07;;;;;;;37.93;29.07;;;7.90;72.20;;;;;;5110017;27;20612;-82
2021/01/09 12:19:32;;;;;;;39.53;32.43;;;7.80;74.10;;;;;;5126945;27;20687;-81
2021/01/09 12:21:58;;;;;;;40.80;32.67;;;7.80;75.50;;;;;;5128046;27;20275;-81
2021/01/09 12:24:25;;;;;;;31.30;25.50;;;7.80;74.70;;;;;;5127931;27;20175;-82
2021/01/09 12:26:55;;;;;;;31.20;22.90;;;7.80;71.10;;;;;;5109817;27;20608;-82
2021/01/09 12:29:22;;;;;;;34.25;23.88;;;7.80;68.50;;;;;;5128191;27;20179;-82
2021/01/09 12:31:48;;;;;;;57.55;32.80;;;7.70;68.80;;;;;;5127274;27;20183;-81
2021/01/09 12:34:15;;;;;;;50.33;35.17;;;7.70;69.80;;;;;;5125597;27;20179;-82
2021/01/09 12:36:42;;;;;;;40.95;30.85;;;7.50;72.30;;;;;;5104147;28;20623;-81